Time,TemperatureF,DewpointF,PressureIn,WindDirection,WindDirectionDegrees,WindSpeedMPH,WindSpeedGustMPH,Humidity,HourlyPrecipIn,Conditions,Clouds,dailyrainin,SoftwareType,DateUTC
2013-09-29 00:00:00,55.4,52.2,30.17,WNW,293,0.0,0.0,89,0.00,,,0.00,WUHU216HW,2013-09-29 04:00:00,
2013-09-29 00:01:00,55.3,52.0,30.17,WNW,293,0.0,0.0,89,0.00,,,0.00,WUHU216HW,2013-09-29 04:01:00,
2013-09-29 00:02:00,55.3,52.0,30.17,WNW,293,0.0,0.0,89,0.00,,,0.00,WUHU216HW,2013-09-29 04:02:00,
2013-09-29 00:06:00,55.1,51.8,30.17,WNW,293,0.0,0.0,89,0.00,,,0.00,WUHU216HW,2013-09-29 04:06:00,
2013-09-29 00:07:00,55.1,51.8,30.17,WNW,293,0.0,0.0,89,0.00,,,0.00,WUHU216HW,2013-09-29 04:07:00,
2013-09-29 00:09:00,55.1,51.8,30.16,WNW,293,0.0,0.0,89,0.00,,,0.00,WUHU216HW,2013-09-29 04:09:00,
2013-09-29 00:12:00,55.1,51.8,30.17,WNW,293,0.0,0.0,89,0.00,,,0.00,WUHU216HW,2013-09-29 04:12:00,
2013-09-29 00:13:00,55.1,51.8,30.16,WNW,293,0.0,0.0,89,0.00,,,0.00,WUHU216HW,2013-09-29 04:13:00,
2013-09-29 00:14:00,54.9,51.7,30.16,WNW,293,0.0,0.0,89,0.00,,,0.00,WUHU216HW,2013-09-29 04:14:00,
2013-09-29 00:17:00,54.9,51.7,30.16,WNW,293,0.0,0.0,89,0.00,,,0.00,WUHU216HW,2013-09-29 04:17:00,
2013-09-29 00:18:00,54.9,51.7,30.16,WNW,293,0.0,0.0,89,0.00,,,0.00,WUHU216HW,2013-09-29 04:18:00,
2013-09-29 00:22:00,54.7,51.5,30.16,WNW,293,0.0,0.0,89,0.00,,,0.00,WUHU216HW,2013-09-29 04:22:00,
2013-09-29 00:23:00,54.7,51.5,30.16,WNW,293,0.0,0.0,89,0.00,,,0.00,WUHU216HW,2013-09-29 04:23:00,
2013-09-29 00:25:00,54.7,51.5,30.16,WNW,293,0.0,0.0,89,0.00,,,0.00,WUHU216HW,2013-09-29 04:25:00,
2013-09-29 00:28:00,54.5,51.3,30.16,WNW,293,0.0,0.0,89,0.00,,,0.00,WUHU216HW,2013-09-29 04:28:00,
2013-09-29 00:29:00,54.5,51.3,30.16,WNW,293,0.0,0.0,89,0.00,,,0.00,WUHU216HW,2013-09-29 04:29:00,
2013-09-29 00:30:00,54.5,51.3,30.16,WNW,293,0.0,0.0,89,0.00,,,0.00,WUHU216HW,2013-09-29 04:30:00,
2013-09-29 01:26:00,54.5,51.3,30.16,WNW,293,0.0,0.0,89,0.00,,,0.00,WUHU216HW,2013-09-29 05:26:00,
2013-09-29 01:27:00,54.5,51.3,30.16,WNW,293,0.0,0.0,89,0.00,,,0.00,WUHU216HW,2013-09-29 05:27:00,
2013-09-29 01:31:00,54.5,51.3,30.16,WNW,293,0.0,0.0,89,0.00,,,0.00,WUHU216HW,2013-09-29 05:31:00,
2013-09-29 01:32:00,54.5,51.3,30.16,WNW,293,0.0,0.0,89,0.00,,,0.00,WUHU216HW,2013-09-29 05:32:00,
2013-09-29 01:33:00,54.5,51.3,30.16,WNW,293,0.0,0.0,89,0.00,,,0.00,WUHU216HW,2013-09-29 05:33:00,
2013-09-29 01:34:00,54.5,51.3,30.16,WNW,293,0.0,0.0,89,0.00,,,0.00,WUHU216HW,2013-09-29 05:34:00,
2013-09-29 02:00:00,52.4,49.8,30.15,WNW,293,0.0,0.0,91,0.00,,,0.00,WUHU216HW,2013-09-29 06:00:00,
2013-09-29 02:02:00,52.4,49.8,30.16,WNW,293,0.0,0.0,91,0.00,,,0.00,WUHU216HW,2013-09-29 06:02:00,
2013-09-29 02:05:00,52.2,49.6,30.15,WNW,293,0.0,0.0,91,0.00,,,0.00,WUHU216HW,2013-09-29 06:05:00,
2013-09-29 02:06:00,52.2,49.6,30.15,WNW,293,0.0,0.0,91,0.00,,,0.00,WUHU216HW,2013-09-29 06:06:00,
2013-09-29 02:07:00,52.2,49.6,30.15,WNW,293,0.0,0.0,91,0.00,,,0.00,WUHU216HW,2013-09-29 06:07:00,
2013-09-29 02:08:00,52.2,49.6,30.15,WNW,293,0.0,0.0,91,0.00,,,0.00,WUHU216HW,2013-09-29 06:08:00,
2013-09-29 02:11:00,52.2,49.6,30.15,WNW,293,0.0,0.0,91,0.00,,,0.00,WUHU216HW,2013-09-29 06:11:00,
2013-09-29 02:12:00,52.2,49.6,30.14,WNW,293,0.0,0.0,91,0.00,,,0.00,WUHU216HW,2013-09-29 06:12:00,
2013-09-29 02:13:00,52.2,49.6,30.14,WNW,293,0.0,0.0,91,0.00,,,0.00,WUHU216HW,2013-09-29 06:13:00,
2013-09-29 02:16:00,52.0,49.4,30.14,WNW,293,0.0,0.0,91,0.00,,,0.00,WUHU216HW,2013-09-29 06:16:00,
2013-09-29 02:17:00,52.0,49.4,30.14,WNW,293,0.0,0.0,91,0.00,,,0.00,WUHU216HW,2013-09-29 06:17:00,
2013-09-29 02:19:00,52.0,49.4,30.14,WNW,293,0.0,0.0,91,0.00,,,0.00,WUHU216HW,2013-09-29 06:19:00,
2013-09-29 02:22:00,51.8,49.2,30.14,WNW,293,0.0,0.0,91,0.00,,,0.00,WUHU216HW,2013-09-29 06:22:00,
2013-09-29 02:23:00,51.8,49.2,30.14,WNW,293,0.0,0.0,91,0.00,,,0.00,WUHU216HW,2013-09-29 06:23:00,
2013-09-29 02:24:00,51.7,48.8,30.14,WNW,293,0.0,0.0,90,0.00,,,0.00,WUHU216HW,2013-09-29 06:24:00,
2013-09-29 02:27:00,51.7,48.8,30.14,WNW,293,0.0,0.0,90,0.00,,,0.00,WUHU216HW,2013-09-29 06:27:00,
2013-09-29 02:28:00,51.7,48.8,30.14,WNW,293,0.0,0.0,90,0.00,,,0.00,WUHU216HW,2013-09-29 06:28:00,
2013-09-29 02:29:00,51.7,48.8,30.14,WNW,293,0.0,0.0,90,0.00,,,0.00,WUHU216HW,2013-09-29 06:29:00,
2013-09-29 02:32:00,51.5,48.6,30.14,WNW,293,0.0,0.0,90,0.00,,,0.00,WUHU216HW,2013-09-29 06:32:00,
2013-09-29 02:33:00,51.5,48.6,30.14,WNW,293,0.0,0.0,90,0.00,,,0.00,WUHU216HW,2013-09-29 06:33:00,
2013-09-29 02:34:00,51.5,48.6,30.14,WNW,293,0.0,0.0,90,0.00,,,0.00,WUHU216HW,2013-09-29 06:34:00,
2013-09-29 02:36:00,51.5,48.6,30.14,WNW,293,0.0,0.0,90,0.00,,,0.00,WUHU216HW,2013-09-29 06:36:00,
2013-09-29 02:38:00,51.5,48.6,30.14,WNW,293,0.0,0.0,90,0.00,,,0.00,WUHU216HW,2013-09-29 06:38:00,
2013-09-29 02:40:00,51.5,48.6,30.14,WNW,293,0.0,0.0,90,0.00,,,0.00,WUHU216HW,2013-09-29 06:40:00,
2013-09-29 02:42:00,51.5,48.6,30.14,WNW,293,0.0,0.0,90,0.00,,,0.00,WUHU216HW,2013-09-29 06:42:00,
2013-09-29 02:43:00,51.5,48.6,30.14,WNW,293,0.0,0.0,90,0.00,,,0.00,WUHU216HW,2013-09-29 06:43:00,
2013-09-29 02:45:00,51.5,48.9,30.14,WNW,293,0.0,0.0,91,0.00,,,0.00,WUHU216HW,2013-09-29 06:45:00,
2013-09-29 02:48:00,51.3,48.7,30.13,WNW,293,0.0,0.0,91,0.00,,,0.00,WUHU216HW,2013-09-29 06:48:00,
2013-09-29 02:49:00,51.3,48.7,30.13,WNW,293,0.0,0.0,91,0.00,,,0.00,WUHU216HW,2013-09-29 06:49:00,
2013-09-29 02:51:00,51.3,48.7,30.13,WNW,293,0.0,0.0,91,0.00,,,0.00,WUHU216HW,2013-09-29 06:51:00,
2013-09-29 02:53:00,51.1,48.5,30.13,WNW,293,0.0,0.0,91,0.00,,,0.00,WUHU216HW,2013-09-29 06:53:00,
2013-09-29 02:54:00,51.1,48.5,30.13,WNW,293,0.0,0.0,91,0.00,,,0.00,WUHU216HW,2013-09-29 06:54:00,
2013-09-29 02:56:00,51.3,48.7,30.13,WNW,293,0.0,0.0,91,0.00,,,0.00,WUHU216HW,2013-09-29 06:56:00,
2013-09-29 02:59:00,51.3,48.7,30.13,WNW,293,0.0,0.0,91,0.00,,,0.00,WUHU216HW,2013-09-29 06:59:00,
2013-09-29 03:01:00,51.1,48.5,30.13,WNW,293,0.0,0.0,91,0.00,,,0.00,WUHU216HW,2013-09-29 07:01:00,
2013-09-29 03:02:00,51.3,48.7,30.13,WNW,293,0.0,0.0,91,0.00,,,0.00,WUHU216HW,2013-09-29 07:02:00,
2013-09-29 03:04:00,51.1,48.5,30.13,WNW,293,0.0,0.0,91,0.00,,,0.00,WUHU216HW,2013-09-29 07:04:00,
2013-09-29 03:06:00,51.1,48.5,30.13,WNW,293,0.0,0.0,91,0.00,,,0.00,WUHU216HW,2013-09-29 07:06:00,
2013-09-29 03:56:00,51.3,48.7,30.13,WNW,293,0.0,0.0,91,0.00,,,0.00,WUHU216HW,2013-09-29 07:56:00,
2013-09-29 03:57:00,51.3,48.7,30.13,WNW,293,0.0,0.0,91,0.00,,,0.00,WUHU216HW,2013-09-29 07:57:00,
2013-09-29 04:02:00,50.4,47.8,30.12,WNW,293,0.0,0.0,91,0.00,,,0.00,WUHU216HW,2013-09-29 08:02:00,
2013-09-29 04:03:00,50.2,47.6,30.12,WNW,293,0.0,0.0,91,0.00,,,0.00,WUHU216HW,2013-09-29 08:03:00,
2013-09-29 04:04:00,50.2,47.6,30.12,WNW,293,0.0,0.0,91,0.00,,,0.00,WUHU216HW,2013-09-29 08:04:00,
2013-09-29 04:08:00,50.2,47.6,30.12,WNW,293,0.0,0.0,91,0.00,,,0.00,WUHU216HW,2013-09-29 08:08:00,
2013-09-29 04:09:00,50.2,47.6,30.11,WNW,293,0.0,0.0,91,0.00,,,0.00,WUHU216HW,2013-09-29 08:09:00,
2013-09-29 04:10:00,50.2,47.6,30.12,WNW,293,0.0,0.0,91,0.00,,,0.00,WUHU216HW,2013-09-29 08:10:00,
2013-09-29 04:13:00,50.2,47.6,30.12,WNW,293,0.0,0.0,91,0.00,,,0.00,WUHU216HW,2013-09-29 08:13:00,
2013-09-29 04:14:00,50.0,47.4,30.12,WNW,293,0.0,0.0,91,0.00,,,0.00,WUHU216HW,2013-09-29 08:14:00,
2013-09-29 04:15:00,50.0,47.4,30.12,WNW,293,0.0,0.0,91,0.00,,,0.00,WUHU216HW,2013-09-29 08:15:00,
2013-09-29 04:19:00,50.0,47.4,30.12,WNW,293,0.0,0.0,91,0.00,,,0.00,WUHU216HW,2013-09-29 08:19:00,
2013-09-29 04:20:00,50.0,47.4,30.12,WNW,293,0.0,0.0,91,0.00,,,0.00,WUHU216HW,2013-09-29 08:20:00,
2013-09-29 04:22:00,50.0,47.4,30.12,WNW,293,0.0,0.0,91,0.00,,,0.00,WUHU216HW,2013-09-29 08:22:00,
2013-09-29 04:24:00,50.0,47.4,30.12,WNW,293,0.0,0.0,91,0.00,,,0.00,WUHU216HW,2013-09-29 08:24:00,
2013-09-29 04:26:00,50.0,47.4,30.12,WNW,293,0.0,0.0,91,0.00,,,0.00,WUHU216HW,2013-09-29 08:26:00,
2013-09-29 04:27:00,50.0,47.4,30.12,WNW,293,0.0,0.0,91,0.00,,,0.00,WUHU216HW,2013-09-29 08:27:00,
2013-09-29 04:29:00,50.0,47.4,30.12,WNW,293,0.0,0.0,91,0.00,,,0.00,WUHU216HW,2013-09-29 08:29:00,
2013-09-29 04:32:00,49.9,47.3,30.12,WNW,293,0.0,0.0,91,0.00,,,0.00,WUHU216HW,2013-09-29 08:32:00,
2013-09-29 04:33:00,50.0,47.4,30.12,WNW,293,0.0,0.0,91,0.00,,,0.00,WUHU216HW,2013-09-29 08:33:00,
2013-09-29 04:34:00,49.9,47.3,30.12,WNW,293,0.0,0.0,91,0.00,,,0.00,WUHU216HW,2013-09-29 08:34:00,
2013-09-29 04:35:00,49.9,47.3,30.12,WNW,293,0.0,0.0,91,0.00,,,0.00,WUHU216HW,2013-09-29 08:35:00,
2013-09-29 04:37:00,49.9,47.3,30.12,WNW,293,0.0,0.0,91,0.00,,,0.00,WUHU216HW,2013-09-29 08:37:00,
2013-09-29 04:38:00,49.9,47.3,30.12,WNW,293,0.0,0.0,91,0.00,,,0.00,WUHU216HW,2013-09-29 08:38:00,
2013-09-29 04:39:00,49.9,47.3,30.12,WNW,293,0.0,0.0,91,0.00,,,0.00,WUHU216HW,2013-09-29 08:39:00,
2013-09-29 04:40:00,49.9,47.3,30.12,WNW,293,0.0,0.0,91,0.00,,,0.00,WUHU216HW,2013-09-29 08:40:00,
2013-09-29 04:42:00,49.9,47.3,30.12,WNW,293,0.0,0.0,91,0.00,,,0.00,WUHU216HW,2013-09-29 08:42:00,
2013-09-29 04:43:00,49.9,47.3,30.12,WNW,293,0.0,0.0,91,0.00,,,0.00,WUHU216HW,2013-09-29 08:43:00,
2013-09-29 04:45:00,49.9,47.3,30.12,WNW,293,0.0,0.0,91,0.00,,,0.00,WUHU216HW,2013-09-29 08:45:00,
2013-09-29 04:48:00,49.9,47.3,30.12,WNW,293,0.0,0.0,91,0.00,,,0.00,WUHU216HW,2013-09-29 08:48:00,
2013-09-29 04:49:00,49.9,47.3,30.12,WNW,293,0.0,0.0,91,0.00,,,0.00,WUHU216HW,2013-09-29 08:49:00,
2013-09-29 04:50:00,49.9,47.3,30.12,WNW,293,0.0,0.0,91,0.00,,,0.00,WUHU216HW,2013-09-29 08:50:00,
2013-09-29 04:53:00,49.9,47.3,30.12,WNW,293,0.0,0.0,91,0.00,,,0.00,WUHU216HW,2013-09-29 08:53:00,
2013-09-29 04:55:00,49.9,47.3,30.12,WNW,293,0.0,0.0,91,0.00,,,0.00,WUHU216HW,2013-09-29 08:55:00,
2013-09-29 04:56:00,49.9,47.3,30.12,WNW,293,0.0,0.0,91,0.00,,,0.00,WUHU216HW,2013-09-29 08:56:00,
2013-09-29 04:58:00,49.9,47.3,30.12,WNW,293,0.0,0.0,91,0.00,,,0.00,WUHU216HW,2013-09-29 08:58:00,
2013-09-29 04:59:00,49.9,47.3,30.12,WNW,293,0.0,0.0,91,0.00,,,0.00,WUHU216HW,2013-09-29 08:59:00,
2013-09-29 05:01:00,49.9,47.3,30.12,WNW,293,0.0,0.0,91,0.00,,,0.00,WUHU216HW,2013-09-29 09:01:00,
2013-09-29 05:39:00,49.9,47.6,30.12,WNW,293,0.0,0.0,92,0.00,,,0.00,WUHU216HW,2013-09-29 09:39:00,
2013-09-29 05:40:00,49.9,47.6,30.12,WNW,293,0.0,0.0,92,0.00,,,0.00,WUHU216HW,2013-09-29 09:40:00,
2013-09-29 05:41:00,49.9,47.6,30.12,WNW,293,0.0,0.0,92,0.00,,,0.00,WUHU216HW,2013-09-29 09:41:00,
2013-09-29 05:44:00,49.9,47.6,30.12,WNW,293,0.0,0.0,92,0.00,,,0.00,WUHU216HW,2013-09-29 09:44:00,
2013-09-29 05:45:00,49.9,47.6,30.12,WNW,293,0.0,0.0,92,0.00,,,0.00,WUHU216HW,2013-09-29 09:45:00,
2013-09-29 05:46:00,49.9,47.6,30.12,WNW,293,0.0,0.0,92,0.00,,,0.00,WUHU216HW,2013-09-29 09:46:00,
2013-09-29 06:00:00,49.5,47.3,30.12,WNW,293,0.0,0.0,92,0.00,,,0.00,WUHU216HW,2013-09-29 10:00:00,
2013-09-29 06:01:00,49.3,47.1,30.12,WNW,293,0.0,0.0,92,0.00,,,0.00,WUHU216HW,2013-09-29 10:01:00,
2013-09-29 06:03:00,49.3,47.1,30.12,WNW,293,0.0,0.0,92,0.00,,,0.00,WUHU216HW,2013-09-29 10:03:00,
2013-09-29 06:05:00,49.3,47.1,30.12,WNW,293,0.0,0.0,92,0.00,,,0.00,WUHU216HW,2013-09-29 10:05:00,
2013-09-29 06:06:00,49.3,47.1,30.12,WNW,293,0.0,0.0,92,0.00,,,0.00,WUHU216HW,2013-09-29 10:06:00,
2013-09-29 06:07:00,49.3,47.1,30.12,WNW,293,0.0,0.0,92,0.00,,,0.00,WUHU216HW,2013-09-29 10:07:00,
2013-09-29 06:10:00,49.3,47.1,30.12,WNW,293,0.0,0.0,92,0.00,,,0.00,WUHU216HW,2013-09-29 10:10:00,
2013-09-29 06:11:00,49.3,47.1,30.12,WNW,293,0.0,0.0,92,0.00,,,0.00,WUHU216HW,2013-09-29 10:11:00,
2013-09-29 06:13:00,49.3,47.1,30.12,WNW,293,0.0,0.0,92,0.00,,,0.00,WUHU216HW,2013-09-29 10:13:00,
2013-09-29 06:16:00,49.3,47.1,30.12,WNW,293,0.0,0.0,92,0.00,,,0.00,WUHU216HW,2013-09-29 10:16:00,
2013-09-29 06:18:00,49.3,47.1,30.12,WNW,293,0.0,0.0,92,0.00,,,0.00,WUHU216HW,2013-09-29 10:18:00,
2013-09-29 06:21:00,49.5,47.3,30.12,WNW,293,0.0,0.0,92,0.00,,,0.00,WUHU216HW,2013-09-29 10:21:00,
2013-09-29 06:23:00,49.5,47.3,30.12,WNW,293,0.0,0.0,92,0.00,,,0.00,WUHU216HW,2013-09-29 10:23:00,
2013-09-29 06:26:00,49.5,47.3,30.12,WNW,293,0.0,0.0,92,0.00,,,0.00,WUHU216HW,2013-09-29 10:26:00,
2013-09-29 06:27:00,49.5,47.3,30.12,WNW,293,0.0,0.0,92,0.00,,,0.00,WUHU216HW,2013-09-29 10:27:00,
2013-09-29 06:28:00,49.5,47.3,30.12,WNW,293,0.0,0.0,92,0.00,,,0.00,WUHU216HW,2013-09-29 10:28:00,
2013-09-29 06:29:00,49.5,47.3,30.12,WNW,293,0.0,0.0,92,0.00,,,0.00,WUHU216HW,2013-09-29 10:29:00,
2013-09-29 06:32:00,49.3,47.1,30.12,WNW,293,0.0,0.0,92,0.00,,,0.00,WUHU216HW,2013-09-29 10:32:00,
2013-09-29 06:33:00,49.5,47.5,30.12,WNW,293,0.0,0.0,93,0.00,,,0.00,WUHU216HW,2013-09-29 10:33:00,
2013-09-29 06:34:00,49.5,47.5,30.13,WNW,293,0.0,0.0,93,0.00,,,0.00,WUHU216HW,2013-09-29 10:34:00,
2013-09-29 06:37:00,49.3,47.1,30.12,WNW,293,0.0,0.0,92,0.00,,,0.00,WUHU216HW,2013-09-29 10:37:00,
2013-09-29 06:38:00,49.3,47.1,30.13,WNW,293,0.0,0.0,92,0.00,,,0.00,WUHU216HW,2013-09-29 10:38:00,
2013-09-29 06:39:00,49.3,47.1,30.12,WNW,293,0.0,0.0,92,0.00,,,0.00,WUHU216HW,2013-09-29 10:39:00,
2013-09-29 07:01:00,49.3,47.1,30.12,WNW,293,0.0,0.0,92,0.00,,,0.00,WUHU216HW,2013-09-29 11:01:00,
2013-09-29 07:05:00,49.3,47.1,30.12,WNW,293,0.0,0.0,92,0.00,,,0.00,WUHU216HW,2013-09-29 11:05:00,
2013-09-29 07:06:00,49.3,47.1,30.12,WNW,293,0.0,0.0,92,0.00,,,0.00,WUHU216HW,2013-09-29 11:06:00,
2013-09-29 07:07:00,49.3,47.1,30.12,WNW,293,0.0,0.0,92,0.00,,,0.00,WUHU216HW,2013-09-29 11:07:00,
2013-09-29 08:00:00,51.1,49.2,30.13,WNW,293,0.0,0.0,93,0.00,,,0.00,WUHU216HW,2013-09-29 12:00:00,
2013-09-29 08:05:00,51.3,49.6,30.13,WNW,293,0.0,0.0,94,0.00,,,0.00,WUHU216HW,2013-09-29 12:05:00,
2013-09-29 08:06:00,51.5,49.8,30.12,WNW,293,0.0,0.0,94,0.00,,,0.00,WUHU216HW,2013-09-29 12:06:00,
2013-09-29 08:11:00,51.7,49.7,30.13,WNW,293,0.0,0.0,93,0.00,,,0.00,WUHU216HW,2013-09-29 12:11:00,
2013-09-29 08:13:00,51.7,50.0,30.13,WNW,293,0.0,0.0,94,0.00,,,0.00,WUHU216HW,2013-09-29 12:13:00,
2013-09-29 08:16:00,51.7,49.7,30.14,WNW,293,0.0,0.0,93,0.00,,,0.00,WUHU216HW,2013-09-29 12:16:00,
2013-09-29 08:17:00,51.7,49.7,30.14,WNW,293,0.0,0.0,93,0.00,,,0.00,WUHU216HW,2013-09-29 12:17:00,
2013-09-29 08:18:00,51.7,50.0,30.14,WNW,293,0.0,0.0,94,0.00,,,0.00,WUHU216HW,2013-09-29 12:18:00,
2013-09-29 08:19:00,51.7,49.7,30.14,WNW,293,0.0,0.0,93,0.00,,,0.00,WUHU216HW,2013-09-29 12:19:00,
2013-09-29 08:21:00,51.8,49.9,30.13,WNW,293,0.0,0.0,93,0.00,,,0.00,WUHU216HW,2013-09-29 12:21:00,
2013-09-29 08:22:00,51.8,49.9,30.13,WNW,293,0.0,0.0,93,0.00,,,0.00,WUHU216HW,2013-09-29 12:22:00,
2013-09-29 08:23:00,52.0,50.1,30.14,WNW,293,0.0,0.0,93,0.00,,,0.00,WUHU216HW,2013-09-29 12:23:00,
2013-09-29 08:26:00,52.0,50.3,30.13,WNW,293,0.0,0.0,94,0.00,,,0.00,WUHU216HW,2013-09-29 12:26:00,
2013-09-29 08:27:00,52.2,50.2,30.14,WNW,293,0.0,0.0,93,0.00,,,0.00,WUHU216HW,2013-09-29 12:27:00,
2013-09-29 08:28:00,52.2,50.5,30.14,WNW,293,0.0,0.0,94,0.00,,,0.00,WUHU216HW,2013-09-29 12:28:00,
2013-09-29 08:31:00,52.4,50.7,30.13,WNW,293,0.0,0.0,94,0.00,,,0.00,WUHU216HW,2013-09-29 12:31:00,
2013-09-29 08:32:00,52.4,50.7,30.13,WNW,293,0.0,0.0,94,0.00,,,0.00,WUHU216HW,2013-09-29 12:32:00,
2013-09-29 08:34:00,52.6,50.9,30.13,WNW,293,0.0,0.0,94,0.00,,,0.00,WUHU216HW,2013-09-29 12:34:00,
2013-09-29 08:36:00,52.9,51.5,30.13,WNW,293,0.0,0.0,95,0.00,,,0.00,WUHU216HW,2013-09-29 12:36:00,
2013-09-29 08:37:00,52.9,51.5,30.13,WNW,293,0.0,0.0,95,0.00,,,0.00,WUHU216HW,2013-09-29 12:37:00,
2013-09-29 08:38:00,52.9,51.5,30.13,WNW,293,0.0,0.0,95,0.00,,,0.00,WUHU216HW,2013-09-29 12:38:00,
2013-09-29 08:40:00,52.9,51.5,30.13,WNW,293,0.0,0.0,95,0.00,,,0.00,WUHU216HW,2013-09-29 12:40:00,
2013-09-29 08:42:00,52.9,51.5,30.13,WNW,293,0.0,0.0,95,0.00,,,0.00,WUHU216HW,2013-09-29 12:42:00,
2013-09-29 08:43:00,53.1,51.7,30.13,WNW,293,0.0,0.0,95,0.00,,,0.00,WUHU216HW,2013-09-29 12:43:00,
2013-09-29 08:45:00,53.3,51.8,30.13,WNW,293,0.0,0.0,95,0.00,,,0.00,WUHU216HW,2013-09-29 12:45:00,
2013-09-29 08:47:00,53.3,51.8,30.13,WNW,293,0.0,0.0,95,0.00,,,0.00,WUHU216HW,2013-09-29 12:47:00,
2013-09-29 08:48:00,53.3,51.8,30.13,WNW,293,0.0,0.0,95,0.00,,,0.00,WUHU216HW,2013-09-29 12:48:00,
2013-09-29 08:49:00,53.5,52.0,30.13,WNW,293,0.0,0.0,95,0.00,,,0.00,WUHU216HW,2013-09-29 12:49:00,
2013-09-29 08:51:00,53.5,52.0,30.13,WNW,293,0.0,0.0,95,0.00,,,0.00,WUHU216HW,2013-09-29 12:51:00,
2013-09-29 08:52:00,53.6,52.2,30.13,WNW,293,0.0,0.0,95,0.00,,,0.00,WUHU216HW,2013-09-29 12:52:00,
2013-09-29 08:53:00,53.6,52.2,30.13,WNW,293,0.0,0.0,95,0.00,,,0.00,WUHU216HW,2013-09-29 12:53:00,
2013-09-29 08:54:00,53.6,52.2,30.13,WNW,293,0.0,0.0,95,0.00,,,0.00,WUHU216HW,2013-09-29 12:54:00,
2013-09-29 08:56:00,54.0,52.6,30.13,WNW,293,0.0,0.0,95,0.00,,,0.00,WUHU216HW,2013-09-29 12:56:00,
2013-09-29 08:57:00,54.0,52.6,30.13,WNW,293,0.0,0.0,95,0.00,,,0.00,WUHU216HW,2013-09-29 12:57:00,
2013-09-29 08:58:00,54.0,52.6,30.13,WNW,293,0.0,0.0,95,0.00,,,0.00,WUHU216HW,2013-09-29 12:58:00,
2013-09-29 08:59:00,54.2,52.7,30.13,WNW,293,0.0,0.0,95,0.00,,,0.00,WUHU216HW,2013-09-29 12:59:00,
2013-09-29 09:01:00,54.4,52.9,30.13,WNW,293,0.0,0.0,95,0.00,,,0.00,WUHU216HW,2013-09-29 13:01:00,
2013-09-29 09:03:00,54.4,52.9,30.13,WNW,293,0.0,0.0,95,0.00,,,0.00,WUHU216HW,2013-09-29 13:03:00,
2013-09-29 09:04:00,54.4,52.9,30.13,WNW,293,0.0,0.0,95,0.00,,,0.00,WUHU216HW,2013-09-29 13:04:00,
2013-09-29 09:05:00,54.4,52.9,30.13,WNW,293,0.0,0.0,95,0.00,,,0.00,WUHU216HW,2013-09-29 13:05:00,
2013-09-29 09:07:00,54.7,53.3,30.13,WNW,293,0.0,0.0,95,0.00,,,0.00,WUHU216HW,2013-09-29 13:07:00,
2013-09-29 09:08:00,54.7,53.3,30.13,WNW,293,0.0,0.0,95,0.00,,,0.00,WUHU216HW,2013-09-29 13:08:00,
2013-09-29 09:09:00,54.7,53.3,30.13,WNW,293,0.0,0.0,95,0.00,,,0.00,WUHU216HW,2013-09-29 13:09:00,
2013-09-29 09:11:00,55.1,53.6,30.13,WNW,293,0.0,0.0,95,0.00,,,0.00,WUHU216HW,2013-09-29 13:11:00,
2013-09-29 09:12:00,55.1,53.6,30.12,WNW,293,0.0,0.0,95,0.00,,,0.00,WUHU216HW,2013-09-29 13:12:00,
2013-09-29 09:13:00,55.1,53.6,30.12,WNW,293,0.0,0.0,95,0.00,,,0.00,WUHU216HW,2013-09-29 13:13:00,
2013-09-29 09:15:00,55.3,53.8,30.12,WNW,293,0.0,0.0,95,0.00,,,0.00,WUHU216HW,2013-09-29 13:15:00,
2013-09-29 09:17:00,55.4,54.0,30.12,WNW,293,0.0,0.0,95,0.00,,,0.00,WUHU216HW,2013-09-29 13:17:00,
2013-09-29 09:18:00,55.8,54.4,30.12,WNW,293,0.0,0.0,95,0.00,,,0.00,WUHU216HW,2013-09-29 13:18:00,
2013-09-29 09:19:00,55.8,54.4,30.12,WNW,293,0.0,0.0,95,0.00,,,0.00,WUHU216HW,2013-09-29 13:19:00,
2013-09-29 09:20:00,55.8,54.4,30.12,WNW,293,0.0,0.0,95,0.00,,,0.00,WUHU216HW,2013-09-29 13:20:00,
2013-09-29 09:22:00,56.2,54.7,30.12,WNW,293,0.0,0.0,95,0.00,,,0.00,WUHU216HW,2013-09-29 13:22:00,
2013-09-29 09:23:00,56.2,54.7,30.12,WNW,293,0.0,0.0,95,0.00,,,0.00,WUHU216HW,2013-09-29 13:23:00,
2013-09-29 09:24:00,56.3,54.9,30.12,WNW,293,0.0,0.0,95,0.00,,,0.00,WUHU216HW,2013-09-29 13:24:00,
2013-09-29 09:25:00,56.5,55.1,30.12,WNW,293,0.0,0.0,95,0.00,,,0.00,WUHU216HW,2013-09-29 13:25:00,
2013-09-29 09:29:00,57.1,55.6,30.12,ESE,113,0.0,1.1,95,0.00,,,0.00,WUHU216HW,2013-09-29 13:29:00,
2013-09-29 09:30:00,57.4,56.0,30.12,ESE,113,0.4,1.1,95,0.00,,,0.00,WUHU216HW,2013-09-29 13:30:00,
2013-09-29 09:31:00,57.6,56.2,30.12,ESE,113,0.7,1.1,95,0.00,,,0.00,WUHU216HW,2013-09-29 13:31:00,
2013-09-29 09:35:00,58.3,56.6,30.12,ESE,113,0.0,1.6,94,0.00,,,0.00,WUHU216HW,2013-09-29 13:35:00,
2013-09-29 09:36:00,58.7,57.0,30.12,ESE,113,0.9,1.6,94,0.00,,,0.00,WUHU216HW,2013-09-29 13:36:00,
2013-09-29 09:40:00,59.2,57.3,30.12,ESE,113,0.4,2.0,93,0.00,,,0.00,WUHU216HW,2013-09-29 13:40:00,
2013-09-29 09:41:00,59.4,57.4,30.13,ESE,113,0.4,2.0,93,0.00,,,0.00,WUHU216HW,2013-09-29 13:41:00,
2013-09-29 09:42:00,59.4,57.4,30.12,ESE,113,0.0,2.0,93,0.00,,,0.00,WUHU216HW,2013-09-29 13:42:00,
2013-09-29 09:46:00,59.8,57.4,30.12,SE,135,0.0,2.0,92,0.00,,,0.00,WUHU216HW,2013-09-29 13:46:00,
2013-09-29 09:47:00,60.1,57.8,30.12,ESE,113,1.1,1.6,92,0.00,,,0.00,WUHU216HW,2013-09-29 13:47:00,
2013-09-29 09:48:00,60.1,57.5,30.12,ESE,113,0.4,1.6,91,0.00,,,0.00,WUHU216HW,2013-09-29 13:48:00,
2013-09-29 09:49:00,60.1,57.5,30.12,ESE,113,1.1,1.8,91,0.00,,,0.00,WUHU216HW,2013-09-29 13:49:00,
2013-09-29 09:51:00,60.1,57.2,30.12,SSE,158,1.6,2.5,90,0.00,,,0.00,WUHU216HW,2013-09-29 13:51:00,
2013-09-29 09:53:00,60.3,57.4,30.13,ESE,113,0.0,2.5,90,0.00,,,0.00,WUHU216HW,2013-09-29 13:53:00,
2013-09-29 09:55:00,60.5,57.6,30.12,SE,135,1.1,2.5,90,0.00,,,0.00,WUHU216HW,2013-09-29 13:55:00,
2013-09-29 09:57:00,60.7,57.4,30.13,ESE,113,0.2,2.5,89,0.00,,,0.00,WUHU216HW,2013-09-29 13:57:00,
2013-09-29 09:58:00,60.7,57.4,30.12,ESE,113,0.4,2.5,89,0.00,,,0.00,WUHU216HW,2013-09-29 13:58:00,
2013-09-29 10:00:00,60.8,57.3,30.13,SE,135,1.1,2.5,88,0.00,,,0.00,WUHU216HW,2013-09-29 14:00:00,
2013-09-29 10:01:00,60.8,57.3,30.13,SE,135,1.6,2.5,88,0.00,,,0.00,WUHU216HW,2013-09-29 14:01:00,
2013-09-29 10:02:00,60.8,57.3,30.13,ESE,113,0.4,2.5,88,0.00,,,0.00,WUHU216HW,2013-09-29 14:02:00,
2013-09-29 10:03:00,60.8,57.3,30.13,ESE,113,0.0,2.5,88,0.00,,,0.00,WUHU216HW,2013-09-29 14:03:00,
2013-09-29 10:06:00,61.0,57.8,30.13,ESE,113,0.0,2.5,89,0.00,,,0.00,WUHU216HW,2013-09-29 14:06:00,
2013-09-29 10:07:00,61.0,57.8,30.13,ESE,113,0.0,2.5,89,0.00,,,0.00,WUHU216HW,2013-09-29 14:07:00,
2013-09-29 10:08:00,61.0,57.8,30.13,ESE,113,0.0,2.5,89,0.00,,,0.00,WUHU216HW,2013-09-29 14:08:00,
2013-09-29 10:09:00,61.0,57.5,30.13,SE,135,0.0,2.5,88,0.00,,,0.00,WUHU216HW,2013-09-29 14:09:00,
2013-09-29 10:12:00,61.2,57.7,30.13,ESE,113,0.9,0.9,88,0.00,,,0.00,WUHU216HW,2013-09-29 14:12:00,
2013-09-29 10:13:00,61.2,58.0,30.13,ESE,113,0.0,0.9,89,0.00,,,0.00,WUHU216HW,2013-09-29 14:13:00,
2013-09-29 10:14:00,61.2,57.7,30.13,ESE,113,0.0,0.9,88,0.00,,,0.00,WUHU216HW,2013-09-29 14:14:00,
2013-09-29 10:17:00,61.6,58.1,30.13,ESE,113,0.0,1.6,88,0.00,,,0.00,WUHU216HW,2013-09-29 14:17:00,
2013-09-29 10:19:00,61.6,58.1,30.13,ESE,113,1.1,1.6,88,0.00,,,0.00,WUHU216HW,2013-09-29 14:19:00,
2013-09-29 10:20:00,61.6,58.1,30.12,ESE,113,0.4,1.6,88,0.00,,,0.00,WUHU216HW,2013-09-29 14:20:00,
2013-09-29 10:24:00,61.9,58.1,30.13,SE,135,0.2,1.6,87,0.00,,,0.00,WUHU216HW,2013-09-29 14:24:00,
2013-09-29 10:25:00,61.9,58.1,30.12,SE,135,0.4,1.6,87,0.00,,,0.00,WUHU216HW,2013-09-29 14:25:00,
2013-09-29 10:26:00,61.9,58.1,30.12,ESE,113,0.0,1.6,87,0.00,,,0.00,WUHU216HW,2013-09-29 14:26:00,
2013-09-29 10:29:00,62.1,58.2,30.12,ESE,113,0.0,1.1,87,0.00,,,0.00,WUHU216HW,2013-09-29 14:29:00,
2013-09-29 10:30:00,62.3,58.4,30.12,ESE,113,1.1,1.1,87,0.00,,,0.00,WUHU216HW,2013-09-29 14:30:00,
2013-09-29 10:31:00,62.3,58.4,30.12,ESE,113,1.1,1.1,87,0.00,,,0.00,WUHU216HW,2013-09-29 14:31:00,
2013-09-29 10:35:00,62.5,58.2,30.12,SE,135,1.1,1.8,86,0.00,,,0.00,WUHU216HW,2013-09-29 14:35:00,
2013-09-29 10:36:00,62.5,58.2,30.12,ESE,113,1.1,1.8,86,0.00,,,0.00,WUHU216HW,2013-09-29 14:36:00,
2013-09-29 10:37:00,62.5,58.2,30.12,ESE,113,0.7,1.8,86,0.00,,,0.00,WUHU216HW,2013-09-29 14:37:00,
2013-09-29 10:38:00,62.6,58.4,30.12,ESE,113,0.0,1.8,86,0.00,,,0.00,WUHU216HW,2013-09-29 14:38:00,
2013-09-29 10:42:00,62.8,58.6,30.12,WSW,248,0.0,1.8,86,0.00,,,0.00,WUHU216HW,2013-09-29 14:42:00,
2013-09-29 10:43:00,62.8,58.6,30.12,ESE,113,0.7,1.8,86,0.00,,,0.00,WUHU216HW,2013-09-29 14:43:00,
2013-09-29 10:47:00,63.4,58.8,30.12,ESE,113,0.0,0.9,85,0.00,,,0.00,WUHU216HW,2013-09-29 14:47:00,
2013-09-29 10:48:00,63.4,58.8,30.12,ESE,113,0.4,0.9,85,0.00,,,0.00,WUHU216HW,2013-09-29 14:48:00,
2013-09-29 10:50:00,63.5,59.0,30.12,SE,135,2.0,2.0,85,0.00,,,0.00,WUHU216HW,2013-09-29 14:50:00,
2013-09-29 10:53:00,63.9,58.6,30.12,SE,135,0.7,2.0,83,0.00,,,0.00,WUHU216HW,2013-09-29 14:53:00,
2013-09-29 10:54:00,64.1,58.8,30.11,SE,135,0.2,2.0,83,0.00,,,0.00,WUHU216HW,2013-09-29 14:54:00,
2013-09-29 10:56:00,64.3,59.0,30.12,ESE,113,0.7,2.0,83,0.00,,,0.00,WUHU216HW,2013-09-29 14:56:00,
2013-09-29 10:59:00,64.4,58.9,30.12,ESE,113,0.4,2.0,82,0.00,,,0.00,WUHU216HW,2013-09-29 14:59:00,
2013-09-29 11:00:00,64.6,59.1,30.12,ESE,113,1.3,2.0,82,0.00,,,0.00,WUHU216HW,2013-09-29 15:00:00,
2013-09-29 11:02:00,64.8,59.2,30.12,ESE,113,3.1,3.1,82,0.00,,,0.00,WUHU216HW,2013-09-29 15:02:00,
2013-09-29 11:04:00,64.8,59.2,30.12,ESE,113,2.5,3.1,82,0.00,,,0.00,WUHU216HW,2013-09-29 15:04:00,
2013-09-29 11:05:00,64.8,58.9,30.12,ESE,113,2.5,3.1,81,0.00,,,0.00,WUHU216HW,2013-09-29 15:05:00,
2013-09-29 11:08:00,65.0,58.7,30.12,ESE,113,1.1,3.4,80,0.00,,,0.00,WUHU216HW,2013-09-29 15:08:00,
2013-09-29 11:10:00,65.2,59.2,30.12,ESE,113,0.7,3.4,81,0.00,,,0.00,WUHU216HW,2013-09-29 15:10:00,
2013-09-29 11:11:00,65.2,59.2,30.12,ESE,113,0.2,3.4,81,0.00,,,0.00,WUHU216HW,2013-09-29 15:11:00,
2013-09-29 11:15:00,65.7,59.8,30.12,East,90,0.2,3.4,81,0.00,,,0.00,WUHU216HW,2013-09-29 15:15:00,
2013-09-29 11:16:00,65.9,60.0,30.12,ESE,113,0.4,2.0,81,0.00,,,0.00,WUHU216HW,2013-09-29 15:16:00,
2013-09-29 11:20:00,66.1,59.8,30.12,ESE,113,1.8,2.7,80,0.00,,,0.00,WUHU216HW,2013-09-29 15:20:00,
2013-09-29 11:21:00,66.1,59.8,30.12,ESE,113,1.8,2.7,80,0.00,,,0.00,WUHU216HW,2013-09-29 15:21:00,
2013-09-29 11:26:00,66.1,59.8,30.12,ESE,113,1.1,2.7,80,0.00,,,0.00,WUHU216HW,2013-09-29 15:26:00,
2013-09-29 11:27:00,66.1,59.8,30.12,SE,135,1.1,2.7,80,0.00,,,0.00,WUHU216HW,2013-09-29 15:27:00,
2013-09-29 11:29:00,66.1,59.8,30.12,SE,135,1.1,2.7,80,0.00,,,0.00,WUHU216HW,2013-09-29 15:29:00,
2013-09-29 11:32:00,66.1,59.8,30.12,SE,135,1.1,1.1,80,0.00,,,0.00,WUHU216HW,2013-09-29 15:32:00,
2013-09-29 11:33:00,66.1,59.8,30.12,SE,135,1.1,1.1,80,0.00,,,0.00,WUHU216HW,2013-09-29 15:33:00,
2013-09-29 11:34:00,66.1,59.8,30.12,SE,135,1.1,1.1,80,0.00,,,0.00,WUHU216HW,2013-09-29 15:34:00,
2013-09-29 12:00:00,68.2,59.7,30.10,ESE,113,0.4,0.4,74,0.00,,,0.00,WUHU216HW,2013-09-29 16:00:00,
2013-09-29 12:01:00,68.2,59.7,30.10,ESE,113,1.6,1.6,74,0.00,,,0.00,WUHU216HW,2013-09-29 16:01:00,
2013-09-29 12:04:00,68.4,59.8,30.10,WNW,293,0.4,1.6,74,0.00,,,0.00,WUHU216HW,2013-09-29 16:04:00,
2013-09-29 12:05:00,68.6,59.9,30.09,WNW,293,0.0,1.6,74,0.00,,,0.00,WUHU216HW,2013-09-29 16:05:00,
2013-09-29 12:06:00,68.6,59.9,30.09,WNW,293,0.0,1.6,74,0.00,,,0.00,WUHU216HW,2013-09-29 16:06:00,
2013-09-29 12:07:00,68.8,60.1,30.09,WNW,293,0.4,1.6,74,0.00,,,0.00,WUHU216HW,2013-09-29 16:07:00,
2013-09-29 12:10:00,69.5,60.0,30.09,ESE,113,1.3,1.6,72,0.00,,,0.00,WUHU216HW,2013-09-29 16:10:00,
2013-09-29 12:11:00,69.5,60.0,30.09,ESE,113,2.5,2.5,72,0.00,,,0.00,WUHU216HW,2013-09-29 16:11:00,
2013-09-29 12:12:00,69.5,59.7,30.09,ESE,113,2.0,2.5,71,0.00,,,0.00,WUHU216HW,2013-09-29 16:12:00,
2013-09-29 12:16:00,69.1,59.0,30.10,ESE,113,2.0,2.5,70,0.00,,,0.00,WUHU216HW,2013-09-29 16:16:00,
2013-09-29 12:17:00,68.9,58.3,30.10,ESE,113,2.5,2.5,69,0.00,,,0.00,WUHU216HW,2013-09-29 16:17:00,
2013-09-29 12:21:00,68.8,58.6,30.10,SE,135,0.0,2.5,70,0.00,,,0.00,WUHU216HW,2013-09-29 16:21:00,
2013-09-29 12:22:00,68.8,59.0,30.10,SE,135,0.0,2.5,71,0.00,,,0.00,WUHU216HW,2013-09-29 16:22:00,
2013-09-29 12:23:00,68.8,59.0,30.10,SE,135,0.0,2.5,71,0.00,,,0.00,WUHU216HW,2013-09-29 16:23:00,
2013-09-29 12:24:00,68.8,59.0,30.10,ESE,113,0.0,2.5,71,0.00,,,0.00,WUHU216HW,2013-09-29 16:24:00,
2013-09-29 12:26:00,68.9,59.1,30.10,ESE,113,0.9,2.5,71,0.00,,,0.00,WUHU216HW,2013-09-29 16:26:00,
2013-09-29 12:27:00,68.9,58.8,30.10,ESE,113,1.1,1.8,70,0.00,,,0.00,WUHU216HW,2013-09-29 16:27:00,
2013-09-29 12:28:00,69.1,59.0,30.10,ESE,113,0.0,1.8,70,0.00,,,0.00,WUHU216HW,2013-09-29 16:28:00,
2013-09-29 12:30:00,69.1,59.3,30.10,SE,135,1.1,1.8,71,0.00,,,0.00,WUHU216HW,2013-09-29 16:30:00,
2013-09-29 12:31:00,69.1,59.0,30.10,SE,135,0.9,1.8,70,0.00,,,0.00,WUHU216HW,2013-09-29 16:31:00,
2013-09-29 12:33:00,69.3,59.1,30.09,SE,135,0.9,2.0,70,0.00,,,0.00,WUHU216HW,2013-09-29 16:33:00,
2013-09-29 12:35:00,69.3,59.1,30.09,ESE,113,2.5,2.5,70,0.00,,,0.00,WUHU216HW,2013-09-29 16:35:00,
2013-09-29 12:37:00,69.1,59.0,30.09,ESE,113,0.0,2.5,70,0.00,,,0.00,WUHU216HW,2013-09-29 16:37:00,
2013-09-29 12:38:00,69.1,59.0,30.09,ESE,113,0.0,2.5,70,0.00,,,0.00,WUHU216HW,2013-09-29 16:38:00,
2013-09-29 12:39:00,69.1,59.0,30.09,ESE,113,0.0,2.5,70,0.00,,,0.00,WUHU216HW,2013-09-29 16:39:00,
2013-09-29 12:40:00,69.3,59.1,30.09,SE,135,0.0,2.5,70,0.00,,,0.00,WUHU216HW,2013-09-29 16:40:00,
2013-09-29 12:42:00,69.5,59.2,30.09,ESE,113,0.9,2.5,70,0.00,,,0.00,WUHU216HW,2013-09-29 16:42:00,
2013-09-29 12:44:00,69.5,59.2,30.09,ESE,113,0.9,2.5,70,0.00,,,0.00,WUHU216HW,2013-09-29 16:44:00,
2013-09-29 12:45:00,69.7,58.6,30.09,SE,135,1.8,2.5,68,0.00,,,0.00,WUHU216HW,2013-09-29 16:45:00,
2013-09-29 12:46:00,69.7,58.6,30.09,ESE,113,2.7,2.7,68,0.00,,,0.00,WUHU216HW,2013-09-29 16:46:00,
2013-09-29 12:48:00,69.5,58.4,30.09,SE,135,0.2,2.7,68,0.00,,,0.00,WUHU216HW,2013-09-29 16:48:00,
2013-09-29 12:49:00,69.5,58.0,30.09,ESE,113,0.4,2.7,67,0.00,,,0.00,WUHU216HW,2013-09-29 16:49:00,
2013-09-29 12:50:00,69.5,58.4,30.09,ESE,113,0.0,2.7,68,0.00,,,0.00,WUHU216HW,2013-09-29 16:50:00,
2013-09-29 12:51:00,69.5,58.9,30.09,ESE,113,0.0,2.7,69,0.00,,,0.00,WUHU216HW,2013-09-29 16:51:00,
2013-09-29 12:53:00,69.7,58.6,30.09,ESE,113,0.4,2.7,68,0.00,,,0.00,WUHU216HW,2013-09-29 16:53:00,
2013-09-29 12:54:00,69.7,59.1,30.09,ESE,113,0.2,2.7,69,0.00,,,0.00,WUHU216HW,2013-09-29 16:54:00,
2013-09-29 12:56:00,69.8,58.8,30.09,ESE,113,0.2,2.0,68,0.00,,,0.00,WUHU216HW,2013-09-29 16:56:00,
2013-09-29 12:59:00,70.2,59.1,30.09,SE,135,0.0,1.3,68,0.00,,,0.00,WUHU216HW,2013-09-29 16:59:00,
2013-09-29 13:00:00,70.2,59.1,30.09,ESE,113,0.4,1.3,68,0.00,,,0.00,WUHU216HW,2013-09-29 17:00:00,
2013-09-29 13:01:00,70.4,59.3,30.09,ESE,113,1.1,1.6,68,0.00,,,0.00,WUHU216HW,2013-09-29 17:01:00,
2013-09-29 13:02:00,70.2,58.7,30.09,ESE,113,0.4,1.6,67,0.00,,,0.00,WUHU216HW,2013-09-29 17:02:00,
2013-09-29 13:05:00,70.4,59.3,30.09,ESE,113,0.0,1.6,68,0.00,,,0.00,WUHU216HW,2013-09-29 17:05:00,
2013-09-29 13:06:00,70.4,59.3,30.09,East,90,0.0,1.6,68,0.00,,,0.00,WUHU216HW,2013-09-29 17:06:00,
2013-09-29 13:07:00,70.4,59.3,30.09,East,90,0.0,1.6,68,0.00,,,0.00,WUHU216HW,2013-09-29 17:07:00,
2013-09-29 13:08:00,70.4,59.3,30.09,ESE,113,0.0,1.6,68,0.00,,,0.00,WUHU216HW,2013-09-29 17:08:00,
2013-09-29 13:11:00,70.4,58.9,30.09,ESE,113,0.0,1.6,67,0.00,,,0.00,WUHU216HW,2013-09-29 17:11:00,
2013-09-29 13:12:00,70.6,59.1,30.09,ESE,113,0.0,0.4,67,0.00,,,0.00,WUHU216HW,2013-09-29 17:12:00,
2013-09-29 13:13:00,70.6,59.5,30.09,ESE,113,0.0,0.2,68,0.00,,,0.00,WUHU216HW,2013-09-29 17:13:00,
2013-09-29 13:15:00,70.6,59.5,30.08,ESE,113,0.0,0.2,68,0.00,,,0.00,WUHU216HW,2013-09-29 17:15:00,
2013-09-29 13:17:00,70.7,59.7,30.08,West,270,0.0,1.1,68,0.00,,,0.00,WUHU216HW,2013-09-29 17:17:00,
2013-09-29 13:19:00,70.7,59.7,30.08,West,270,0.0,1.1,68,0.00,,,0.00,WUHU216HW,2013-09-29 17:19:00,
2013-09-29 13:20:00,70.9,59.9,30.08,West,270,0.0,1.1,68,0.00,,,0.00,WUHU216HW,2013-09-29 17:20:00,
2013-09-29 13:22:00,71.1,59.6,30.08,West,270,0.0,1.1,67,0.00,,,0.00,WUHU216HW,2013-09-29 17:22:00,
2013-09-29 13:24:00,71.1,59.1,30.08,West,270,0.0,1.1,66,0.00,,,0.00,WUHU216HW,2013-09-29 17:24:00,
2013-09-29 13:25:00,71.1,59.6,30.07,West,270,0.4,1.1,67,0.00,,,0.00,WUHU216HW,2013-09-29 17:25:00,
2013-09-29 13:28:00,71.5,60.0,30.07,SW,225,0.0,0.4,67,0.00,,,0.00,WUHU216HW,2013-09-29 17:28:00,
2013-09-29 13:30:00,71.5,59.5,30.07,SE,135,0.4,1.3,66,0.00,,,0.00,WUHU216HW,2013-09-29 17:30:00,
2013-09-29 13:31:00,71.6,59.2,30.07,ESE,113,0.9,1.3,65,0.00,,,0.00,WUHU216HW,2013-09-29 17:31:00,
2013-09-29 13:33:00,71.8,59.4,30.07,ESE,113,0.0,1.3,65,0.00,,,0.00,WUHU216HW,2013-09-29 17:33:00,
2013-09-29 13:35:00,72.0,59.6,30.07,SE,135,0.2,2.7,65,0.00,,,0.00,WUHU216HW,2013-09-29 17:35:00,
2013-09-29 13:36:00,72.0,59.6,30.07,SE,135,0.2,2.7,65,0.00,,,0.00,WUHU216HW,2013-09-29 17:36:00,
2013-09-29 13:39:00,72.0,59.1,30.07,SE,135,0.0,2.7,64,0.00,,,0.00,WUHU216HW,2013-09-29 17:39:00,
2013-09-29 13:41:00,71.8,59.4,30.07,SE,135,0.0,2.7,65,0.00,,,0.00,WUHU216HW,2013-09-29 17:41:00,
2013-09-29 13:42:00,71.6,59.2,30.07,ESE,113,0.7,2.7,65,0.00,,,0.00,WUHU216HW,2013-09-29 17:42:00,
2013-09-29 13:44:00,71.5,58.6,30.07,ESE,113,1.8,2.7,64,0.00,,,0.00,WUHU216HW,2013-09-29 17:44:00,
2013-09-29 13:46:00,71.1,58.3,30.07,ESE,113,0.0,2.5,64,0.00,,,0.00,WUHU216HW,2013-09-29 17:46:00,
2013-09-29 13:47:00,70.9,58.2,30.07,ESE,113,0.0,2.5,64,0.00,,,0.00,WUHU216HW,2013-09-29 17:47:00,
2013-09-29 13:53:00,70.9,58.5,30.07,SE,135,0.0,2.0,65,0.00,,,0.00,WUHU216HW,2013-09-29 17:53:00,
2013-09-29 13:54:00,70.9,58.5,30.07,SE,135,0.0,2.0,65,0.00,,,0.00,WUHU216HW,2013-09-29 17:54:00,
2013-09-29 13:55:00,70.9,58.5,30.07,SE,135,0.0,1.1,65,0.00,,,0.00,WUHU216HW,2013-09-29 17:55:00,
2013-09-29 13:59:00,70.9,58.5,30.07,SE,135,0.0,0.0,65,0.00,,,0.00,WUHU216HW,2013-09-29 17:59:00,
2013-09-29 14:00:00,70.7,57.5,30.06,ESE,113,1.6,1.8,63,0.00,,,0.00,WUHU216HW,2013-09-29 18:00:00,
2013-09-29 14:04:00,70.6,57.3,30.06,SE,135,0.4,2.0,63,0.00,,,0.00,WUHU216HW,2013-09-29 18:04:00,
2013-09-29 14:05:00,70.7,57.5,30.06,ESE,113,1.1,2.0,63,0.00,,,0.00,WUHU216HW,2013-09-29 18:05:00,
2013-09-29 14:06:00,70.7,57.5,30.06,ESE,113,1.3,2.0,63,0.00,,,0.00,WUHU216HW,2013-09-29 18:06:00,
2013-09-29 14:09:00,70.7,58.0,30.06,SE,135,1.8,2.0,64,0.00,,,0.00,WUHU216HW,2013-09-29 18:09:00,
2013-09-29 14:10:00,70.7,58.0,30.06,ESE,113,1.8,2.0,64,0.00,,,0.00,WUHU216HW,2013-09-29 18:10:00,
2013-09-29 14:11:00,70.7,57.5,30.06,SE,135,0.4,2.0,63,0.00,,,0.00,WUHU216HW,2013-09-29 18:11:00,
2013-09-29 14:14:00,70.7,58.3,30.06,SW,225,0.0,1.8,65,0.00,,,0.00,WUHU216HW,2013-09-29 18:14:00,
2013-09-29 14:15:00,70.6,58.2,30.06,SSW,203,0.0,1.8,65,0.00,,,0.00,WUHU216HW,2013-09-29 18:15:00,
2013-09-29 14:16:00,70.6,58.2,30.06,SSW,203,0.0,1.8,65,0.00,,,0.00,WUHU216HW,2013-09-29 18:16:00,
2013-09-29 14:20:00,70.6,57.8,30.06,ESE,113,1.8,2.2,64,0.00,,,0.00,WUHU216HW,2013-09-29 18:20:00,
2013-09-29 14:21:00,70.6,58.2,30.06,ESE,113,1.6,2.2,65,0.00,,,0.00,WUHU216HW,2013-09-29 18:21:00,
2013-09-29 14:22:00,70.6,57.8,30.06,ESE,113,0.0,2.2,64,0.00,,,0.00,WUHU216HW,2013-09-29 18:22:00,
2013-09-29 14:25:00,70.6,58.2,30.06,SE,135,0.0,2.2,65,0.00,,,0.00,WUHU216HW,2013-09-29 18:25:00,
2013-09-29 14:26:00,70.4,58.1,30.06,SE,135,0.0,2.2,65,0.00,,,0.00,WUHU216HW,2013-09-29 18:26:00,
2013-09-29 14:27:00,70.6,58.2,30.06,SE,135,0.0,2.0,65,0.00,,,0.00,WUHU216HW,2013-09-29 18:27:00,
2013-09-29 14:28:00,70.6,58.2,30.06,SE,135,0.0,2.0,65,0.00,,,0.00,WUHU216HW,2013-09-29 18:28:00,
2013-09-29 14:31:00,70.6,58.2,30.06,SW,225,0.0,1.8,65,0.00,,,0.00,WUHU216HW,2013-09-29 18:31:00,
2013-09-29 14:33:00,70.6,58.2,30.06,SW,225,0.0,0.4,65,0.00,,,0.00,WUHU216HW,2013-09-29 18:33:00,
2013-09-29 14:34:00,70.6,57.8,30.06,SW,225,0.0,0.4,64,0.00,,,0.00,WUHU216HW,2013-09-29 18:34:00,
2013-09-29 14:36:00,70.6,57.3,30.06,SE,135,2.2,2.2,63,0.00,,,0.00,WUHU216HW,2013-09-29 18:36:00,
2013-09-29 14:39:00,70.6,56.5,30.06,ESE,113,1.1,2.2,61,0.00,,,0.00,WUHU216HW,2013-09-29 18:39:00,
2013-09-29 14:41:00,70.4,56.8,30.06,SE,135,0.0,2.2,62,0.00,,,0.00,WUHU216HW,2013-09-29 18:41:00,
2013-09-29 14:42:00,70.6,57.0,30.06,ESE,113,1.1,2.2,62,0.00,,,0.00,WUHU216HW,2013-09-29 18:42:00,
2013-09-29 14:44:00,70.6,57.0,30.06,ESE,113,1.8,2.5,62,0.00,,,0.00,WUHU216HW,2013-09-29 18:44:00,
2013-09-29 14:45:00,70.6,57.0,30.05,SE,135,1.8,2.5,62,0.00,,,0.00,WUHU216HW,2013-09-29 18:45:00,
2013-09-29 14:47:00,70.7,57.1,30.05,SE,135,1.8,2.5,62,0.00,,,0.00,WUHU216HW,2013-09-29 18:47:00,
2013-09-29 14:48:00,70.9,57.2,30.05,SE,135,1.6,2.5,62,0.00,,,0.00,WUHU216HW,2013-09-29 18:48:00,
2013-09-29 14:49:00,70.9,57.2,30.05,SE,135,2.5,2.5,62,0.00,,,0.00,WUHU216HW,2013-09-29 18:49:00,
2013-09-29 14:50:00,70.9,56.9,30.05,ESE,113,1.6,2.5,61,0.00,,,0.00,WUHU216HW,2013-09-29 18:50:00,
2013-09-29 14:53:00,71.3,57.2,30.05,ESE,113,1.6,2.5,61,0.00,,,0.00,WUHU216HW,2013-09-29 18:53:00,
2013-09-29 15:23:00,71.3,56.7,30.05,ESE,113,1.8,1.8,60,0.00,,,0.00,WUHU216HW,2013-09-29 19:23:00,
2013-09-29 15:24:00,71.3,56.7,30.05,ESE,113,1.8,1.8,60,0.00,,,0.00,WUHU216HW,2013-09-29 19:24:00,
2013-09-29 15:28:00,71.3,56.7,30.05,ESE,113,1.8,1.8,60,0.00,,,0.00,WUHU216HW,2013-09-29 19:28:00,
2013-09-29 15:29:00,71.3,56.7,30.05,ESE,113,1.8,1.8,60,0.00,,,0.00,WUHU216HW,2013-09-29 19:29:00,
2013-09-29 16:00:00,71.8,56.3,30.02,ESE,113,0.0,0.0,58,0.00,,,0.00,WUHU216HW,2013-09-29 20:00:00,
2013-09-29 16:01:00,71.8,56.3,30.02,South,180,0.0,0.4,58,0.00,,,0.00,WUHU216HW,2013-09-29 20:01:00,
2013-09-29 16:05:00,72.0,55.9,30.02,ESE,113,0.4,0.9,57,0.00,,,0.00,WUHU216HW,2013-09-29 20:05:00,
2013-09-29 16:06:00,72.2,56.5,30.02,ESE,113,0.2,0.9,58,0.00,,,0.00,WUHU216HW,2013-09-29 20:06:00,
2013-09-29 16:07:00,72.0,55.9,30.02,ESE,113,0.4,0.9,57,0.00,,,0.00,WUHU216HW,2013-09-29 20:07:00,
2013-09-29 16:08:00,72.2,56.1,30.02,SE,135,0.4,1.6,57,0.00,,,0.00,WUHU216HW,2013-09-29 20:08:00,
2013-09-29 16:10:00,72.4,56.7,30.02,SE,135,0.0,1.6,58,0.00,,,0.00,WUHU216HW,2013-09-29 20:10:00,
2013-09-29 16:11:00,72.4,57.3,30.02,SE,135,0.0,1.6,59,0.00,,,0.00,WUHU216HW,2013-09-29 20:11:00,
2013-09-29 16:12:00,72.4,56.7,30.02,ESE,113,0.2,1.6,58,0.00,,,0.00,WUHU216HW,2013-09-29 20:12:00,
2013-09-29 16:14:00,72.4,56.7,30.02,SE,135,1.3,1.6,58,0.00,,,0.00,WUHU216HW,2013-09-29 20:14:00,
2013-09-29 16:16:00,72.2,56.5,30.02,ESE,113,0.0,1.8,58,0.00,,,0.00,WUHU216HW,2013-09-29 20:16:00,
2013-09-29 16:18:00,72.2,56.1,30.02,ESE,113,0.4,1.8,57,0.00,,,0.00,WUHU216HW,2013-09-29 20:18:00,
2013-09-29 16:19:00,72.2,56.5,30.02,East,90,0.0,1.8,58,0.00,,,0.00,WUHU216HW,2013-09-29 20:19:00,
2013-09-29 16:20:00,72.2,56.5,30.02,East,90,0.2,1.8,58,0.00,,,0.00,WUHU216HW,2013-09-29 20:20:00,
2013-09-29 16:21:00,72.2,56.5,30.02,ESE,113,0.0,1.8,58,0.00,,,0.00,WUHU216HW,2013-09-29 20:21:00,
2013-09-29 16:23:00,72.0,56.9,30.02,ESE,113,0.0,1.8,59,0.00,,,0.00,WUHU216HW,2013-09-29 20:23:00,
2013-09-29 16:24:00,72.0,56.3,30.02,ESE,113,0.0,1.3,58,0.00,,,0.00,WUHU216HW,2013-09-29 20:24:00,
2013-09-29 16:33:00,72.0,56.9,30.02,ESE,113,0.0,0.0,59,0.00,,,0.00,WUHU216HW,2013-09-29 20:33:00,
2013-09-29 16:35:00,72.0,56.9,30.02,ESE,113,0.0,0.0,59,0.00,,,0.00,WUHU216HW,2013-09-29 20:35:00,
2013-09-29 16:39:00,72.0,56.9,30.02,ESE,113,0.0,0.0,59,0.00,,,0.00,WUHU216HW,2013-09-29 20:39:00,
2013-09-29 16:40:00,72.0,56.9,30.02,ESE,113,0.0,0.0,59,0.00,,,0.00,WUHU216HW,2013-09-29 20:40:00,
2013-09-29 17:00:00,70.9,55.9,30.01,ESE,113,0.0,0.0,59,0.00,,,0.00,WUHU216HW,2013-09-29 21:00:00,
2013-09-29 17:01:00,70.9,55.9,30.01,ESE,113,0.0,0.0,59,0.00,,,0.00,WUHU216HW,2013-09-29 21:01:00,
2013-09-29 17:05:00,70.9,55.9,30.01,ESE,113,0.0,0.4,59,0.00,,,0.00,WUHU216HW,2013-09-29 21:05:00,
2013-09-29 17:06:00,70.9,55.9,30.01,ESE,113,0.0,0.4,59,0.00,,,0.00,WUHU216HW,2013-09-29 21:06:00,
2013-09-29 17:07:00,70.9,55.9,30.01,ESE,113,0.0,0.4,59,0.00,,,0.00,WUHU216HW,2013-09-29 21:07:00,
2013-09-29 17:10:00,70.9,55.5,30.01,SE,135,0.9,1.6,58,0.00,,,0.00,WUHU216HW,2013-09-29 21:10:00,
2013-09-29 17:11:00,70.7,55.3,30.01,ESE,113,0.0,1.6,58,0.00,,,0.00,WUHU216HW,2013-09-29 21:11:00,
2013-09-29 17:12:00,70.7,55.3,30.01,ESE,113,0.0,1.6,58,0.00,,,0.00,WUHU216HW,2013-09-29 21:12:00,
2013-09-29 17:13:00,70.7,55.3,30.01,ESE,113,0.4,1.6,58,0.00,,,0.00,WUHU216HW,2013-09-29 21:13:00,
2013-09-29 17:16:00,70.7,55.7,30.01,ESE,113,0.0,1.6,59,0.00,,,0.00,WUHU216HW,2013-09-29 21:16:00,
2013-09-29 17:17:00,70.6,55.6,30.01,ESE,113,0.2,1.6,59,0.00,,,0.00,WUHU216HW,2013-09-29 21:17:00,
2013-09-29 17:18:00,70.6,55.6,30.01,ESE,113,0.0,1.6,59,0.00,,,0.00,WUHU216HW,2013-09-29 21:18:00,
2013-09-29 17:21:00,70.6,55.6,30.02,ESE,113,0.0,0.4,59,0.00,,,0.00,WUHU216HW,2013-09-29 21:21:00,
2013-09-29 17:23:00,70.4,55.5,30.02,ESE,113,0.0,0.4,59,0.00,,,0.00,WUHU216HW,2013-09-29 21:23:00,
2013-09-29 17:27:00,70.4,54.9,30.02,ESE,113,0.0,0.2,58,0.00,,,0.00,WUHU216HW,2013-09-29 21:27:00,
2013-09-29 17:28:00,70.4,55.5,30.02,ESE,113,0.0,0.0,59,0.00,,,0.00,WUHU216HW,2013-09-29 21:28:00,
2013-09-29 17:29:00,70.4,55.5,30.02,ESE,113,0.0,0.0,59,0.00,,,0.00,WUHU216HW,2013-09-29 21:29:00,
2013-09-29 17:30:00,70.4,55.5,30.01,ESE,113,0.0,0.0,59,0.00,,,0.00,WUHU216HW,2013-09-29 21:30:00,
2013-09-29 17:32:00,70.2,55.3,30.01,ESE,113,0.0,0.0,59,0.00,,,0.00,WUHU216HW,2013-09-29 21:32:00,
2013-09-29 17:34:00,70.2,55.3,30.01,ESE,113,0.0,0.7,59,0.00,,,0.00,WUHU216HW,2013-09-29 21:34:00,
2013-09-29 17:37:00,70.2,54.7,30.01,WNW,293,0.0,0.9,58,0.00,,,0.00,WUHU216HW,2013-09-29 21:37:00,
2013-09-29 17:38:00,70.2,54.7,30.01,WNW,293,0.0,0.9,58,0.00,,,0.00,WUHU216HW,2013-09-29 21:38:00,
2013-09-29 17:39:00,70.2,55.3,30.01,WNW,293,0.0,0.9,59,0.00,,,0.00,WUHU216HW,2013-09-29 21:39:00,
2013-09-29 17:40:00,70.0,55.1,30.01,WNW,293,0.0,0.9,59,0.00,,,0.00,WUHU216HW,2013-09-29 21:40:00,
2013-09-29 17:43:00,70.0,55.1,30.01,WSW,248,0.4,0.9,59,0.00,,,0.00,WUHU216HW,2013-09-29 21:43:00,
2013-09-29 17:45:00,69.8,54.9,30.01,ESE,113,0.0,0.9,59,0.00,,,0.00,WUHU216HW,2013-09-29 21:45:00,
2013-09-29 17:46:00,70.0,55.1,30.01,ESE,113,0.0,0.9,59,0.00,,,0.00,WUHU216HW,2013-09-29 21:46:00,
2013-09-29 17:48:00,70.0,55.1,30.01,ESE,113,0.0,0.9,59,0.00,,,0.00,WUHU216HW,2013-09-29 21:48:00,
2013-09-29 17:50:00,70.0,55.1,30.01,ESE,113,0.0,0.9,59,0.00,,,0.00,WUHU216HW,2013-09-29 21:50:00,
2013-09-29 17:51:00,69.8,54.9,30.01,ESE,113,0.7,0.9,59,0.00,,,0.00,WUHU216HW,2013-09-29 21:51:00,
2013-09-29 17:53:00,69.8,55.4,30.01,SE,135,0.0,1.3,60,0.00,,,0.00,WUHU216HW,2013-09-29 21:53:00,
2013-09-29 17:57:00,69.7,55.3,30.01,SE,135,0.0,1.3,60,0.00,,,0.00,WUHU216HW,2013-09-29 21:57:00,
2013-09-29 17:58:00,69.7,55.7,30.01,SE,135,0.0,1.3,61,0.00,,,0.00,WUHU216HW,2013-09-29 21:58:00,
2013-09-29 17:59:00,69.7,55.7,30.01,SE,135,0.0,1.3,61,0.00,,,0.00,WUHU216HW,2013-09-29 21:59:00,
2013-09-29 18:02:00,69.5,55.5,30.01,SE,135,0.0,0.2,61,0.00,,,0.00,WUHU216HW,2013-09-29 22:02:00,
2013-09-29 18:04:00,69.5,55.9,30.01,SE,135,0.0,0.0,62,0.00,,,0.00,WUHU216HW,2013-09-29 22:04:00,
2013-09-29 18:05:00,69.5,55.9,30.01,SE,135,0.0,0.0,62,0.00,,,0.00,WUHU216HW,2013-09-29 22:05:00,
2013-09-29 18:08:00,69.1,55.5,30.01,SE,135,0.0,0.0,62,0.00,,,0.00,WUHU216HW,2013-09-29 22:08:00,
2013-09-29 18:09:00,69.1,56.0,30.01,WNW,293,0.4,0.9,63,0.00,,,0.00,WUHU216HW,2013-09-29 22:09:00,
2013-09-29 18:11:00,68.9,55.8,30.01,WNW,293,0.0,0.9,63,0.00,,,0.00,WUHU216HW,2013-09-29 22:11:00,
2013-09-29 18:14:00,68.6,55.9,30.01,WNW,293,0.0,0.9,64,0.00,,,0.00,WUHU216HW,2013-09-29 22:14:00,
2013-09-29 18:16:00,68.6,55.9,30.01,WNW,293,0.0,0.9,64,0.00,,,0.00,WUHU216HW,2013-09-29 22:16:00,
2013-09-29 18:27:00,68.6,55.9,30.01,WNW,293,0.0,0.0,64,0.00,,,0.00,WUHU216HW,2013-09-29 22:27:00,
2013-09-29 18:28:00,68.6,55.9,30.01,WNW,293,0.0,0.0,64,0.00,,,0.00,WUHU216HW,2013-09-29 22:28:00,
2013-09-29 18:32:00,68.6,55.9,30.01,WNW,293,0.0,0.0,64,0.00,,,0.00,WUHU216HW,2013-09-29 22:32:00,
2013-09-29 18:33:00,68.6,55.9,30.01,WNW,293,0.0,0.0,64,0.00,,,0.00,WUHU216HW,2013-09-29 22:33:00,
2013-09-29 18:34:00,68.6,55.9,30.01,WNW,293,0.0,0.0,64,0.00,,,0.00,WUHU216HW,2013-09-29 22:34:00,
2013-09-29 18:37:00,68.6,55.9,30.01,WNW,293,0.0,0.0,64,0.00,,,0.00,WUHU216HW,2013-09-29 22:37:00,
2013-09-29 19:00:00,63.9,55.1,30.02,WNW,293,0.0,0.0,73,0.00,,,0.00,WUHU216HW,2013-09-29 23:00:00,
2013-09-29 19:01:00,63.7,54.9,30.02,WNW,293,0.0,0.0,73,0.00,,,0.00,WUHU216HW,2013-09-29 23:01:00,
2013-09-29 19:05:00,63.4,54.9,30.02,WNW,293,0.0,0.4,74,0.00,,,0.00,WUHU216HW,2013-09-29 23:05:00,
2013-09-29 19:06:00,63.4,54.9,30.02,WNW,293,0.0,0.4,74,0.00,,,0.00,WUHU216HW,2013-09-29 23:06:00,
2013-09-29 19:11:00,62.8,54.4,30.02,WNW,293,0.0,0.4,74,0.00,,,0.00,WUHU216HW,2013-09-29 23:11:00,
2013-09-29 19:12:00,62.8,54.7,30.02,WNW,293,0.0,0.4,75,0.00,,,0.00,WUHU216HW,2013-09-29 23:12:00,
2013-09-29 19:16:00,62.5,54.0,30.02,WNW,293,0.0,0.4,74,0.00,,,0.00,WUHU216HW,2013-09-29 23:16:00,
2013-09-29 19:17:00,62.5,54.0,30.02,WNW,293,0.0,0.4,74,0.00,,,0.00,WUHU216HW,2013-09-29 23:17:00,
2013-09-29 19:21:00,61.9,53.9,30.02,WNW,293,0.0,0.4,75,0.00,,,0.00,WUHU216HW,2013-09-29 23:21:00,
2013-09-29 19:22:00,61.9,53.9,30.02,WNW,293,0.2,0.4,75,0.00,,,0.00,WUHU216HW,2013-09-29 23:22:00,
2013-09-29 19:23:00,61.7,54.1,30.02,WNW,293,0.0,0.4,76,0.00,,,0.00,WUHU216HW,2013-09-29 23:23:00,
2013-09-29 19:27:00,61.6,53.9,30.03,WNW,293,0.0,0.2,76,0.00,,,0.00,WUHU216HW,2013-09-29 23:27:00,
2013-09-29 19:28:00,61.6,53.9,30.02,WNW,293,0.0,0.2,76,0.00,,,0.00,WUHU216HW,2013-09-29 23:28:00,
2013-09-29 19:33:00,61.6,53.9,30.02,WNW,293,0.0,0.2,76,0.00,,,0.00,WUHU216HW,2013-09-29 23:33:00,
2013-09-29 19:34:00,61.6,53.9,30.02,WNW,293,0.0,0.2,76,0.00,,,0.00,WUHU216HW,2013-09-29 23:34:00,
2013-09-29 19:38:00,61.6,53.9,30.02,WNW,293,0.0,0.0,76,0.00,,,0.00,WUHU216HW,2013-09-29 23:38:00,
2013-09-29 19:40:00,61.6,53.9,30.02,WNW,293,0.0,0.0,76,0.00,,,0.00,WUHU216HW,2013-09-29 23:40:00,
2013-09-29 20:00:00,59.6,53.1,30.02,WNW,293,0.0,0.0,79,0.00,,,0.00,WUHU216HW,2013-09-30 00:00:00,
2013-09-29 20:01:00,59.6,53.1,30.02,WNW,293,0.0,0.0,79,0.00,,,0.00,WUHU216HW,2013-09-30 00:01:00,
2013-09-29 20:05:00,59.4,53.3,30.02,WNW,293,0.0,0.0,80,0.00,,,0.00,WUHU216HW,2013-09-30 00:05:00,
2013-09-29 20:06:00,59.4,53.3,30.02,WNW,293,0.0,0.0,80,0.00,,,0.00,WUHU216HW,2013-09-30 00:06:00,
2013-09-29 20:10:00,59.0,53.3,30.02,WNW,293,0.9,0.9,81,0.00,,,0.00,WUHU216HW,2013-09-30 00:10:00,
2013-09-29 20:11:00,59.0,52.9,30.02,WNW,293,0.2,0.9,80,0.00,,,0.00,WUHU216HW,2013-09-30 00:11:00,
2013-09-29 20:16:00,58.9,53.1,30.02,WNW,293,0.0,0.9,81,0.00,,,0.00,WUHU216HW,2013-09-30 00:16:00,
2013-09-29 20:17:00,58.9,53.1,30.02,WNW,293,0.0,0.9,81,0.00,,,0.00,WUHU216HW,2013-09-30 00:17:00,
2013-09-29 20:19:00,58.9,53.1,30.02,WNW,293,0.0,0.9,81,0.00,,,0.00,WUHU216HW,2013-09-30 00:19:00,
2013-09-29 20:21:00,58.7,52.9,30.02,WNW,293,0.0,0.4,81,0.00,,,0.00,WUHU216HW,2013-09-30 00:21:00,
2013-09-29 20:22:00,58.7,52.9,30.02,WNW,293,0.0,0.4,81,0.00,,,0.00,WUHU216HW,2013-09-30 00:22:00,
2013-09-29 20:24:00,58.3,52.6,30.02,WNW,293,0.0,0.0,81,0.00,,,0.00,WUHU216HW,2013-09-30 00:24:00,
2013-09-29 20:26:00,58.3,52.8,30.02,WNW,293,0.0,0.0,82,0.00,,,0.00,WUHU216HW,2013-09-30 00:26:00,
2013-09-29 20:27:00,58.3,52.8,30.02,WNW,293,0.0,0.0,82,0.00,,,0.00,WUHU216HW,2013-09-30 00:27:00,
2013-09-29 20:30:00,58.1,52.7,30.02,WNW,293,0.0,0.2,82,0.00,,,0.00,WUHU216HW,2013-09-30 00:30:00,
2013-09-29 20:32:00,58.1,53.0,30.02,WNW,293,0.0,0.4,83,0.00,,,0.00,WUHU216HW,2013-09-30 00:32:00,
2013-09-29 20:35:00,58.1,53.0,30.02,WNW,293,0.0,0.4,83,0.00,,,0.00,WUHU216HW,2013-09-30 00:35:00,
2013-09-29 20:37:00,58.0,52.8,30.02,WNW,293,0.2,0.4,83,0.00,,,0.00,WUHU216HW,2013-09-30 00:37:00,
2013-09-29 20:38:00,58.0,52.8,30.02,WNW,293,0.0,0.4,83,0.00,,,0.00,WUHU216HW,2013-09-30 00:38:00,
2013-09-29 20:40:00,58.0,52.8,30.02,WNW,293,0.0,0.4,83,0.00,,,0.00,WUHU216HW,2013-09-30 00:40:00,
2013-09-29 20:42:00,58.0,52.8,30.02,WNW,293,0.0,0.4,83,0.00,,,0.00,WUHU216HW,2013-09-30 00:42:00,
2013-09-29 20:43:00,58.0,52.8,30.03,WNW,293,0.0,0.4,83,0.00,,,0.00,WUHU216HW,2013-09-30 00:43:00,
2013-09-29 20:44:00,57.8,52.7,30.02,WNW,293,0.0,0.4,83,0.00,,,0.00,WUHU216HW,2013-09-30 00:44:00,
2013-09-29 20:45:00,57.8,52.7,30.02,WNW,293,0.0,0.4,83,0.00,,,0.00,WUHU216HW,2013-09-30 00:45:00,
2013-09-29 20:48:00,57.8,52.7,30.02,WNW,293,0.0,0.0,83,0.00,,,0.00,WUHU216HW,2013-09-30 00:48:00,
2013-09-29 20:50:00,57.6,52.5,30.02,WNW,293,0.0,0.0,83,0.00,,,0.00,WUHU216HW,2013-09-30 00:50:00,
2013-09-29 20:51:00,57.6,52.5,30.02,WNW,293,0.0,0.0,83,0.00,,,0.00,WUHU216HW,2013-09-30 00:51:00,
2013-09-29 20:54:00,57.4,52.6,30.02,WNW,293,0.0,0.0,84,0.00,,,0.00,WUHU216HW,2013-09-30 00:54:00,
2013-09-29 20:55:00,57.4,52.6,30.02,WNW,293,0.0,0.0,84,0.00,,,0.00,WUHU216HW,2013-09-30 00:55:00,
2013-09-29 20:58:00,57.2,52.4,30.02,WNW,293,0.0,0.0,84,0.00,,,0.00,WUHU216HW,2013-09-30 00:58:00,
2013-09-29 20:59:00,57.2,52.4,30.02,WNW,293,0.0,0.0,84,0.00,,,0.00,WUHU216HW,2013-09-30 00:59:00,
2013-09-29 21:00:00,57.2,52.4,30.02,WNW,293,0.0,0.0,84,0.00,,,0.00,WUHU216HW,2013-09-30 01:00:00,
2013-09-29 21:01:00,57.2,52.4,30.02,WNW,293,0.0,0.0,84,0.00,,,0.00,WUHU216HW,2013-09-30 01:01:00,
2013-09-29 21:04:00,57.1,52.2,30.02,WNW,293,0.0,0.0,84,0.00,,,0.00,WUHU216HW,2013-09-30 01:04:00,
2013-09-29 21:05:00,57.2,52.4,30.02,WNW,293,0.0,0.0,84,0.00,,,0.00,WUHU216HW,2013-09-30 01:05:00,
2013-09-29 21:08:00,57.1,52.2,30.02,WNW,293,0.0,0.0,84,0.00,,,0.00,WUHU216HW,2013-09-30 01:08:00,
2013-09-29 21:09:00,56.9,52.4,30.02,WNW,293,0.0,0.0,85,0.00,,,0.00,WUHU216HW,2013-09-30 01:09:00,
2013-09-29 21:11:00,56.9,52.4,30.02,WNW,293,0.0,0.0,85,0.00,,,0.00,WUHU216HW,2013-09-30 01:11:00,
2013-09-29 21:13:00,56.7,51.8,30.02,WNW,293,0.0,0.0,84,0.00,,,0.00,WUHU216HW,2013-09-30 01:13:00,
2013-09-29 21:15:00,56.7,51.8,30.02,WNW,293,0.0,0.0,84,0.00,,,0.00,WUHU216HW,2013-09-30 01:15:00,
2013-09-29 21:16:00,56.7,51.8,30.02,WNW,293,0.0,0.0,84,0.00,,,0.00,WUHU216HW,2013-09-30 01:16:00,
2013-09-29 21:19:00,56.5,51.7,30.02,WNW,293,0.0,0.0,84,0.00,,,0.00,WUHU216HW,2013-09-30 01:19:00,
2013-09-29 21:20:00,56.5,51.7,30.02,WNW,293,0.0,0.0,84,0.00,,,0.00,WUHU216HW,2013-09-30 01:20:00,
2013-09-29 21:21:00,56.5,52.0,30.01,WNW,293,0.0,0.0,85,0.00,,,0.00,WUHU216HW,2013-09-30 01:21:00,
2013-09-29 21:22:00,56.5,52.0,30.02,WNW,293,0.0,0.0,85,0.00,,,0.00,WUHU216HW,2013-09-30 01:22:00,
2013-09-29 21:24:00,56.3,51.5,30.01,WNW,293,0.0,0.0,84,0.00,,,0.00,WUHU216HW,2013-09-30 01:24:00,
2013-09-29 21:25:00,56.3,51.8,30.02,WNW,293,0.0,0.0,85,0.00,,,0.00,WUHU216HW,2013-09-30 01:25:00,
2013-09-29 21:26:00,56.3,51.8,30.02,WNW,293,0.0,0.0,85,0.00,,,0.00,WUHU216HW,2013-09-30 01:26:00,
2013-09-29 21:28:00,56.3,51.8,30.02,WNW,293,0.0,0.0,85,0.00,,,0.00,WUHU216HW,2013-09-30 01:28:00,
2013-09-29 21:31:00,56.2,51.7,30.02,WNW,293,0.0,0.0,85,0.00,,,0.00,WUHU216HW,2013-09-30 01:31:00,
2013-09-29 21:36:00,56.0,51.9,30.02,WNW,293,0.0,0.0,86,0.00,,,0.00,WUHU216HW,2013-09-30 01:36:00,
2013-09-29 21:37:00,56.0,51.5,30.02,WNW,293,0.0,0.0,85,0.00,,,0.00,WUHU216HW,2013-09-30 01:37:00,
2013-09-29 21:43:00,56.0,51.9,30.02,WNW,293,0.0,0.0,86,0.00,,,0.00,WUHU216HW,2013-09-30 01:43:00,
2013-09-29 21:48:00,56.0,51.5,30.02,WNW,293,0.0,0.0,85,0.00,,,0.00,WUHU216HW,2013-09-30 01:48:00,
2013-09-29 21:49:00,56.0,51.5,30.02,WNW,293,0.0,0.0,85,0.00,,,0.00,WUHU216HW,2013-09-30 01:49:00,
2013-09-29 21:50:00,56.0,51.5,30.02,WNW,293,0.0,0.0,85,0.00,,,0.00,WUHU216HW,2013-09-30 01:50:00,
2013-09-29 22:00:00,55.6,51.5,30.02,WNW,293,0.0,0.0,86,0.00,,,0.00,WUHU216HW,2013-09-30 02:00:00,
2013-09-29 22:01:00,55.4,51.3,30.02,WNW,293,0.0,0.0,86,0.00,,,0.00,WUHU216HW,2013-09-30 02:01:00,
2013-09-29 22:05:00,55.4,51.3,30.02,WNW,293,0.0,0.0,86,0.00,,,0.00,WUHU216HW,2013-09-30 02:05:00,
2013-09-29 22:07:00,55.4,51.3,30.02,WNW,293,0.0,0.0,86,0.00,,,0.00,WUHU216HW,2013-09-30 02:07:00,
2013-09-29 22:08:00,55.4,51.3,30.02,WNW,293,0.0,0.0,86,0.00,,,0.00,WUHU216HW,2013-09-30 02:08:00,
2013-09-29 22:10:00,55.4,51.6,30.02,WNW,293,0.0,0.0,87,0.00,,,0.00,WUHU216HW,2013-09-30 02:10:00,
2013-09-29 22:11:00,55.3,51.4,30.02,WNW,293,0.0,0.0,87,0.00,,,0.00,WUHU216HW,2013-09-30 02:11:00,
2013-09-29 22:12:00,55.3,51.4,30.02,WNW,293,0.0,0.0,87,0.00,,,0.00,WUHU216HW,2013-09-30 02:12:00,
2013-09-29 22:13:00,55.4,51.6,30.02,WNW,293,0.0,0.0,87,0.00,,,0.00,WUHU216HW,2013-09-30 02:13:00,
2013-09-29 22:16:00,55.3,51.4,30.02,WNW,293,0.0,0.0,87,0.00,,,0.00,WUHU216HW,2013-09-30 02:16:00,
2013-09-29 22:17:00,55.3,51.4,30.02,WNW,293,0.0,0.0,87,0.00,,,0.00,WUHU216HW,2013-09-30 02:17:00,
2013-09-29 22:19:00,55.3,51.4,30.02,WNW,293,0.0,0.0,87,0.00,,,0.00,WUHU216HW,2013-09-30 02:19:00,
2013-09-29 22:20:00,55.3,51.4,30.02,WNW,293,0.0,0.0,87,0.00,,,0.00,WUHU216HW,2013-09-30 02:20:00,
2013-09-29 22:21:00,55.3,51.4,30.02,WNW,293,0.0,0.0,87,0.00,,,0.00,WUHU216HW,2013-09-30 02:21:00,
2013-09-29 22:22:00,55.1,51.2,30.02,WNW,293,0.0,0.0,87,0.00,,,0.00,WUHU216HW,2013-09-30 02:22:00,
2013-09-29 22:25:00,55.1,51.2,30.02,WNW,293,0.0,0.0,87,0.00,,,0.00,WUHU216HW,2013-09-30 02:25:00,
2013-09-29 22:27:00,55.1,51.2,30.02,WNW,293,0.0,0.0,87,0.00,,,0.00,WUHU216HW,2013-09-30 02:27:00,
2013-09-29 22:28:00,55.1,51.2,30.02,WNW,293,0.0,0.0,87,0.00,,,0.00,WUHU216HW,2013-09-30 02:28:00,
2013-09-29 22:31:00,55.1,51.6,30.02,WNW,293,0.0,0.0,88,0.00,,,0.00,WUHU216HW,2013-09-30 02:31:00,
2013-09-29 22:33:00,55.1,51.6,30.02,WNW,293,0.0,0.0,88,0.00,,,0.00,WUHU216HW,2013-09-30 02:33:00,
2013-09-29 22:34:00,54.9,51.4,30.02,WNW,293,0.0,0.0,88,0.00,,,0.00,WUHU216HW,2013-09-30 02:34:00,
2013-09-29 22:36:00,54.9,51.4,30.02,WNW,293,0.0,0.0,88,0.00,,,0.00,WUHU216HW,2013-09-30 02:36:00,
2013-09-29 22:38:00,54.9,51.4,30.02,WNW,293,0.0,0.0,88,0.00,,,0.00,WUHU216HW,2013-09-30 02:38:00,
2013-09-29 22:39:00,54.9,51.4,30.02,WNW,293,0.0,0.0,88,0.00,,,0.00,WUHU216HW,2013-09-30 02:39:00,
2013-09-29 22:40:00,54.9,51.4,30.02,WNW,293,0.0,0.0,88,0.00,,,0.00,WUHU216HW,2013-09-30 02:40:00,
2013-09-29 22:42:00,54.7,51.2,30.02,WNW,293,0.0,0.0,88,0.00,,,0.00,WUHU216HW,2013-09-30 02:42:00,
2013-09-29 22:43:00,54.7,51.2,30.02,WNW,293,0.0,0.0,88,0.00,,,0.00,WUHU216HW,2013-09-30 02:43:00,
2013-09-29 22:44:00,54.7,51.2,30.02,WNW,293,0.0,0.0,88,0.00,,,0.00,WUHU216HW,2013-09-30 02:44:00,
2013-09-29 22:46:00,54.7,51.2,30.02,WNW,293,0.0,0.0,88,0.00,,,0.00,WUHU216HW,2013-09-30 02:46:00,
2013-09-29 22:47:00,54.7,51.2,30.02,WNW,293,0.0,0.0,88,0.00,,,0.00,WUHU216HW,2013-09-30 02:47:00,
2013-09-29 22:48:00,54.7,51.2,30.02,WNW,293,0.0,0.0,88,0.00,,,0.00,WUHU216HW,2013-09-30 02:48:00,
2013-09-29 22:50:00,54.7,51.2,30.02,WNW,293,0.0,0.0,88,0.00,,,0.00,WUHU216HW,2013-09-30 02:50:00,
2013-09-29 22:51:00,54.7,51.2,30.02,WNW,293,0.0,0.0,88,0.00,,,0.00,WUHU216HW,2013-09-30 02:51:00,
2013-09-29 22:53:00,54.7,51.2,30.02,WNW,293,0.0,0.0,88,0.00,,,0.00,WUHU216HW,2013-09-30 02:53:00,
2013-09-29 22:54:00,54.7,51.2,30.02,WNW,293,0.0,0.0,88,0.00,,,0.00,WUHU216HW,2013-09-30 02:54:00,
2013-09-29 22:55:00,54.5,51.0,30.02,WNW,293,0.0,0.0,88,0.00,,,0.00,WUHU216HW,2013-09-30 02:55:00,
2013-09-29 22:57:00,54.5,51.0,30.02,WNW,293,0.0,0.0,88,0.00,,,0.00,WUHU216HW,2013-09-30 02:57:00,
2013-09-29 22:59:00,54.5,51.0,30.02,WNW,293,0.0,0.0,88,0.00,,,0.00,WUHU216HW,2013-09-30 02:59:00,
2013-09-29 23:01:00,54.5,51.0,30.02,WNW,293,0.0,0.0,88,0.00,,,0.00,WUHU216HW,2013-09-30 03:01:00,
2013-09-29 23:03:00,54.5,51.3,30.02,WNW,293,0.0,0.0,89,0.00,,,0.00,WUHU216HW,2013-09-30 03:03:00,
2013-09-29 23:04:00,54.4,51.2,30.03,WNW,293,0.0,0.0,89,0.00,,,0.00,WUHU216HW,2013-09-30 03:04:00,
2013-09-29 23:05:00,54.5,51.3,30.02,WNW,293,0.0,0.0,89,0.00,,,0.00,WUHU216HW,2013-09-30 03:05:00,
2013-09-29 23:06:00,54.4,51.2,30.02,WNW,293,0.0,0.0,89,0.00,,,0.00,WUHU216HW,2013-09-30 03:06:00,
2013-09-29 23:08:00,54.4,51.2,30.02,WNW,293,0.0,0.0,89,0.00,,,0.00,WUHU216HW,2013-09-30 03:08:00,
2013-09-29 23:10:00,54.4,51.2,30.03,WNW,293,0.0,0.0,89,0.00,,,0.00,WUHU216HW,2013-09-30 03:10:00,
2013-09-29 23:11:00,54.4,51.2,30.02,WNW,293,0.0,0.0,89,0.00,,,0.00,WUHU216HW,2013-09-30 03:11:00,
2013-09-29 23:13:00,54.4,51.2,30.03,WNW,293,0.0,0.0,89,0.00,,,0.00,WUHU216HW,2013-09-30 03:13:00,
2013-09-29 23:15:00,54.2,51.0,30.03,WNW,293,0.0,0.0,89,0.00,,,0.00,WUHU216HW,2013-09-30 03:15:00,
2013-09-29 23:16:00,54.2,51.0,30.03,WNW,293,0.0,0.0,89,0.00,,,0.00,WUHU216HW,2013-09-30 03:16:00,
2013-09-29 23:18:00,54.2,51.0,30.03,WNW,293,0.0,0.0,89,0.00,,,0.00,WUHU216HW,2013-09-30 03:18:00,
2013-09-29 23:20:00,54.2,51.0,30.03,WNW,293,0.0,0.0,89,0.00,,,0.00,WUHU216HW,2013-09-30 03:20:00,
2013-09-29 23:22:00,54.2,51.0,30.03,WNW,293,0.0,0.0,89,0.00,,,0.00,WUHU216HW,2013-09-30 03:22:00,
2013-09-29 23:23:00,54.2,51.0,30.03,WNW,293,0.0,0.0,89,0.00,,,0.00,WUHU216HW,2013-09-30 03:23:00,
2013-09-29 23:25:00,54.2,51.0,30.03,WNW,293,0.0,0.0,89,0.00,,,0.00,WUHU216HW,2013-09-30 03:25:00,
2013-09-29 23:27:00,54.2,51.0,30.03,WNW,293,0.0,0.0,89,0.00,,,0.00,WUHU216HW,2013-09-30 03:27:00,
2013-09-29 23:29:00,54.0,50.9,30.03,WNW,293,0.0,0.0,89,0.00,,,0.00,WUHU216HW,2013-09-30 03:29:00,
2013-09-29 23:32:00,54.0,50.9,30.03,WNW,293,0.0,0.0,89,0.00,,,0.00,WUHU216HW,2013-09-30 03:32:00,
2013-09-29 23:33:00,54.0,50.9,30.03,WNW,293,0.0,0.0,89,0.00,,,0.00,WUHU216HW,2013-09-30 03:33:00,
2013-09-29 23:34:00,54.0,50.9,30.03,WNW,293,0.0,0.0,89,0.00,,,0.00,WUHU216HW,2013-09-30 03:34:00,
2013-09-29 23:38:00,54.0,50.9,30.03,WNW,293,0.0,0.0,89,0.00,,,0.00,WUHU216HW,2013-09-30 03:38:00,
2013-09-29 23:39:00,54.0,50.9,30.03,WNW,293,0.0,0.0,89,0.00,,,0.00,WUHU216HW,2013-09-30 03:39:00,
2013-09-29 23:40:00,54.0,50.9,30.03,WNW,293,0.0,0.0,89,0.00,,,0.00,WUHU216HW,2013-09-30 03:40:00,
2013-09-29 23:58:00,54.0,50.9,30.03,WNW,293,0.0,0.0,89,0.00,,,0.00,WUHU216HW,2013-09-30 03:58:00,
2013-09-29 23:59:00,54.0,50.9,30.03,WNW,293,0.0,0.0,89,0.00,,,0.00,WUHU216HW,2013-09-30 03:59:00,